Time,TemperatureF,DewpointF,PressureIn,WindDirection,WindDirectionDegrees,WindSpeedMPH,WindSpeedGustMPH,Humidity,HourlyPrecipIn,Conditions,Clouds,dailyrainin,SoftwareType,DateUTC
2013-04-09 00:02:00,58.7,52.0,30.11,East,83,0.0,0.0,77,0.00,,,0.00,weatherlink.com 1.10,2013-04-09 04:02:00,
2013-04-09 00:17:00,58.8,52.0,30.11,East,83,0.0,0.0,77,0.00,,,0.00,weatherlink.com 1.10,2013-04-09 04:17:00,
2013-04-09 00:32:00,58.5,52.0,30.11,East,83,0.0,0.0,78,0.00,,,0.00,weatherlink.com 1.10,2013-04-09 04:32:00,
2013-04-09 00:47:00,58.4,52.0,30.11,East,83,0.0,0.0,78,0.00,,,0.00,weatherlink.com 1.10,2013-04-09 04:47:00,
2013-04-09 01:02:00,58.4,52.0,30.11,East,95,0.0,2.0,78,0.00,,,0.00,weatherlink.com 1.10,2013-04-09 05:02:00,
2013-04-09 01:17:00,58.4,51.0,30.11,ESE,107,0.0,2.0,77,0.00,,,0.00,weatherlink.com 1.10,2013-04-09 05:17:00,
2013-04-09 01:32:00,58.4,51.0,30.11,ESE,107,0.0,0.0,77,0.00,,,0.00,weatherlink.com 1.10,2013-04-09 05:32:00,
2013-04-09 01:47:00,58.0,51.0,30.11,ESE,107,0.0,0.0,78,0.00,,,0.00,weatherlink.com 1.10,2013-04-09 05:47:00,
2013-04-09 02:02:00,57.6,51.0,30.11,ESE,107,0.0,0.0,79,0.00,,,0.00,weatherlink.com 1.10,2013-04-09 06:02:00,
2013-04-09 02:17:00,56.9,51.0,30.11,ESE,109,0.0,0.0,81,0.00,,,0.00,weatherlink.com 1.10,2013-04-09 06:17:00,
2013-04-09 02:32:00,56.5,51.0,30.10,SSE,157,0.0,2.0,83,0.00,,,0.00,weatherlink.com 1.10,2013-04-09 06:32:00,
2013-04-09 02:47:00,56.4,51.0,30.11,SSE,156,0.0,2.0,83,0.00,,,0.00,weatherlink.com 1.10,2013-04-09 06:47:00,
2013-04-09 03:02:00,55.8,51.0,30.11,SSE,156,0.0,0.0,85,0.00,,,0.00,weatherlink.com 1.10,2013-04-09 07:02:00,
2013-04-09 03:17:00,55.1,51.0,30.10,SSE,156,0.0,0.0,86,0.00,,,0.00,weatherlink.com 1.10,2013-04-09 07:17:00,
2013-04-09 03:33:00,54.5,51.0,30.10,SSE,156,0.0,0.0,88,0.00,,,0.00,weatherlink.com 1.10,2013-04-09 07:33:00,
2013-04-09 03:48:00,54.0,51.0,30.11,SSE,156,0.0,0.0,88,0.00,,,0.00,weatherlink.com 1.10,2013-04-09 07:48:00,
2013-04-09 04:03:00,53.6,51.0,30.11,SSE,156,0.0,0.0,89,0.00,,,0.00,weatherlink.com 1.10,2013-04-09 08:03:00,
2013-04-09 04:18:00,53.3,51.0,30.11,SSE,156,0.0,0.0,90,0.00,,,0.00,weatherlink.com 1.10,2013-04-09 08:18:00,
2013-04-09 04:33:00,53.3,51.0,30.11,East,101,0.0,2.0,91,0.00,,,0.00,weatherlink.com 1.10,2013-04-09 08:33:00,
2013-04-09 04:48:00,53.3,51.0,30.12,SE,130,0.0,2.0,90,0.00,,,0.00,weatherlink.com 1.10,2013-04-09 08:48:00,
2013-04-09 05:03:00,53.2,51.0,30.12,SE,130,0.0,1.0,91,0.00,,,0.00,weatherlink.com 1.10,2013-04-09 09:03:00,
2013-04-09 05:18:00,52.9,51.0,30.12,SE,130,0.0,0.0,92,0.00,,,0.00,weatherlink.com 1.10,2013-04-09 09:18:00,
2013-04-09 05:33:00,52.8,51.0,30.13,SE,130,0.0,0.0,93,0.00,,,0.00,weatherlink.com 1.10,2013-04-09 09:33:00,
2013-04-09 05:48:00,53.1,52.0,30.13,ESE,104,0.0,1.0,94,0.00,,,0.00,weatherlink.com 1.10,2013-04-09 09:48:00,
2013-04-09 06:03:00,53.2,51.0,30.14,ESE,103,0.0,0.0,93,0.00,,,0.00,weatherlink.com 1.10,2013-04-09 10:03:00,
2013-04-09 06:18:00,53.0,51.0,30.14,East,100,0.0,1.0,93,0.00,,,0.00,weatherlink.com 1.10,2013-04-09 10:18:00,
2013-04-09 06:33:00,52.9,51.0,30.15,East,100,0.0,0.0,93,0.00,,,0.00,weatherlink.com 1.10,2013-04-09 10:33:00,
2013-04-09 06:48:00,53.1,52.0,30.16,East,100,0.0,0.0,94,0.00,,,0.00,weatherlink.com 1.10,2013-04-09 10:48:00,
2013-04-09 07:03:00,53.6,52.0,30.16,East,100,0.0,0.0,95,0.00,,,0.00,weatherlink.com 1.10,2013-04-09 11:03:00,
2013-04-09 07:18:00,54.1,53.0,30.16,East,100,0.0,1.0,94,0.00,,,0.00,weatherlink.com 1.10,2013-04-09 11:18:00,
2013-04-09 07:33:00,54.6,53.0,30.17,East,100,0.0,2.0,94,0.00,,,0.00,weatherlink.com 1.10,2013-04-09 11:33:00,
2013-04-09 07:48:00,56.1,54.0,30.17,East,90,0.0,2.0,93,0.00,,,0.00,weatherlink.com 1.10,2013-04-09 11:48:00,
2013-04-09 08:03:00,57.5,55.0,30.18,East,89,0.0,0.0,91,0.00,,,0.00,weatherlink.com 1.10,2013-04-09 12:03:00,
2013-04-09 08:18:00,58.9,55.0,30.18,East,86,1.0,3.0,87,0.00,,,0.00,weatherlink.com 1.10,2013-04-09 12:18:00,
2013-04-09 08:33:00,60.5,56.0,30.18,East,92,2.0,3.0,85,0.00,,,0.00,weatherlink.com 1.10,2013-04-09 12:33:00,
2013-04-09 08:48:00,62.2,56.0,30.19,ESE,122,0.0,3.0,81,0.00,,,0.00,weatherlink.com 1.10,2013-04-09 12:48:00,
2013-04-09 10:04:00,66.5,57.0,30.20,ESE,110,1.0,3.0,71,0.00,,,0.00,weatherlink.com 1.10,2013-04-09 14:04:00,
2013-04-09 10:19:00,68.1,58.0,30.20,East,79,0.0,4.0,69,0.00,,,0.00,weatherlink.com 1.10,2013-04-09 14:19:00,
2013-04-09 10:34:00,69.6,57.0,30.20,East,84,2.0,5.0,65,0.00,,,0.00,weatherlink.com 1.10,2013-04-09 14:34:00,
2013-04-09 10:49:00,70.8,57.0,30.20,ENE,76,0.0,5.0,62,0.00,,,0.00,weatherlink.com 1.10,2013-04-09 14:49:00,
2013-04-09 11:04:00,72.6,59.0,30.20,ENE,78,0.0,3.0,62,0.00,,,0.00,weatherlink.com 1.10,2013-04-09 15:04:00,
2013-04-09 11:19:00,74.6,58.0,30.20,East,94,1.0,4.0,57,0.00,,,0.00,weatherlink.com 1.10,2013-04-09 15:19:00,
2013-04-09 11:34:00,75.6,59.0,30.20,South,171,1.0,5.0,56,0.00,,,0.00,weatherlink.com 1.10,2013-04-09 15:34:00,
2013-04-09 11:49:00,77.3,59.0,30.20,SE,126,2.0,6.0,54,0.00,,,0.00,weatherlink.com 1.10,2013-04-09 15:49:00,
2013-04-09 12:04:00,78.0,59.0,30.19,East,93,5.0,8.0,53,0.00,,,0.00,weatherlink.com 1.10,2013-04-09 16:04:00,
2013-04-09 12:19:00,78.7,60.0,30.19,SSE,156,3.0,4.0,52,0.00,,,0.00,weatherlink.com 1.10,2013-04-09 16:19:00,
2013-04-09 12:34:00,78.5,57.0,30.18,NE,54,1.0,9.0,48,0.00,,,0.00,weatherlink.com 1.10,2013-04-09 16:34:00,
2013-04-09 12:49:00,78.7,59.0,30.18,NE,45,2.0,7.0,51,0.00,,,0.00,weatherlink.com 1.10,2013-04-09 16:49:00,
2013-04-09 13:04:00,79.3,58.0,30.18,NE,55,4.0,10.0,48,0.00,,,0.00,weatherlink.com 1.10,2013-04-09 17:04:00,
2013-04-09 13:19:00,80.5,57.0,30.17,ESE,105,1.0,7.0,44,0.00,,,0.00,weatherlink.com 1.10,2013-04-09 17:19:00,
2013-04-09 13:34:00,79.6,57.0,30.17,ESE,104,7.0,10.0,46,0.00,,,0.00,weatherlink.com 1.10,2013-04-09 17:34:00,
2013-04-09 13:49:00,80.2,57.0,30.16,East,85,10.0,10.0,45,0.00,,,0.00,weatherlink.com 1.10,2013-04-09 17:49:00,
2013-04-09 14:04:00,80.7,57.0,30.16,SE,135,4.0,13.0,44,0.00,,,0.00,weatherlink.com 1.10,2013-04-09 18:04:00,
2013-04-09 14:19:00,80.9,56.0,30.16,ENE,59,3.0,9.0,43,0.00,,,0.00,weatherlink.com 1.10,2013-04-09 18:19:00,
2013-04-09 14:34:00,81.5,58.0,30.15,ENE,67,8.0,8.0,45,0.00,,,0.00,weatherlink.com 1.10,2013-04-09 18:34:00,
2013-04-09 14:49:00,81.8,57.0,30.15,East,82,3.0,12.0,43,0.00,,,0.00,weatherlink.com 1.10,2013-04-09 18:49:00,
2013-04-09 15:05:00,82.0,57.0,30.14,ENE,72,5.0,9.0,43,0.00,,,0.00,weatherlink.com 1.10,2013-04-09 19:05:00,
2013-04-09 15:20:00,82.5,56.0,30.13,SSE,165,4.0,10.0,41,0.00,,,0.00,weatherlink.com 1.10,2013-04-09 19:20:00,
2013-04-09 15:35:00,81.2,56.0,30.13,ESE,109,3.0,11.0,42,0.00,,,0.00,weatherlink.com 1.10,2013-04-09 19:35:00,
2013-04-09 15:50:00,82.0,56.0,30.13,South,174,1.0,12.0,41,0.00,,,0.00,weatherlink.com 1.10,2013-04-09 19:50:00,
2013-04-09 16:05:00,82.0,55.0,30.12,East,95,3.0,15.0,40,0.00,,,0.00,weatherlink.com 1.10,2013-04-09 20:05:00,
2013-04-09 16:20:00,81.5,56.0,30.12,ENE,78,2.0,9.0,42,0.00,,,0.00,weatherlink.com 1.10,2013-04-09 20:20:00,
2013-04-09 16:35:00,81.4,56.0,30.12,ENE,71,3.0,10.0,42,0.00,,,0.00,weatherlink.com 1.10,2013-04-09 20:35:00,
2013-04-09 16:50:00,79.5,56.0,30.11,East,79,3.0,9.0,44,0.00,,,0.00,weatherlink.com 1.10,2013-04-09 20:50:00,
2013-04-09 17:05:00,80.6,56.0,30.11,ENE,74,3.0,9.0,43,0.00,,,0.00,weatherlink.com 1.10,2013-04-09 21:05:00,
2013-04-09 17:20:00,81.9,58.0,30.11,ESE,104,3.0,13.0,44,0.00,,,0.00,weatherlink.com 1.10,2013-04-09 21:20:00,
2013-04-09 17:35:00,81.9,57.0,30.11,East,99,2.0,10.0,42,0.00,,,0.00,weatherlink.com 1.10,2013-04-09 21:35:00,
2013-04-09 17:50:00,82.3,56.0,30.11,East,101,5.0,12.0,40,0.00,,,0.00,weatherlink.com 1.10,2013-04-09 21:50:00,
2013-04-09 18:05:00,82.1,56.0,30.11,ESE,109,3.0,11.0,41,0.00,,,0.00,weatherlink.com 1.10,2013-04-09 22:05:00,
2013-04-09 18:20:00,81.8,56.0,30.11,ENE,72,7.0,12.0,41,0.00,,,0.00,weatherlink.com 1.10,2013-04-09 22:20:00,
2013-04-09 18:35:00,81.1,55.0,30.11,SE,129,5.0,10.0,41,0.00,,,0.00,weatherlink.com 1.10,2013-04-09 22:35:00,
2013-04-09 18:50:00,80.8,56.0,30.11,SE,129,6.0,11.0,42,0.00,,,0.00,weatherlink.com 1.10,2013-04-09 22:50:00,
2013-04-09 19:05:00,79.4,55.0,30.11,East,90,3.0,9.0,43,0.00,,,0.00,weatherlink.com 1.10,2013-04-09 23:05:00,
2013-04-09 19:20:00,78.3,55.0,30.11,South,171,2.0,11.0,45,0.00,,,0.00,weatherlink.com 1.10,2013-04-09 23:20:00,
2013-04-09 19:35:00,77.4,56.0,30.11,ENE,77,3.0,6.0,47,0.00,,,0.00,weatherlink.com 1.10,2013-04-09 23:35:00,
2013-04-09 19:50:00,76.4,56.0,30.10,ENE,78,1.0,8.0,49,0.00,,,0.00,weatherlink.com 1.10,2013-04-09 23:50:00,
2013-04-09 20:05:00,75.7,56.0,30.10,East,89,2.0,5.0,51,0.00,,,0.00,weatherlink.com 1.10,2013-04-10 00:05:00,
2013-04-09 20:20:00,74.6,56.0,30.10,East,90,1.0,3.0,53,0.00,,,0.00,weatherlink.com 1.10,2013-04-10 00:20:00,
2013-04-09 20:35:00,73.6,56.0,30.10,East,84,1.0,3.0,54,0.00,,,0.00,weatherlink.com 1.10,2013-04-10 00:35:00,
2013-04-09 20:50:00,73.1,56.0,30.11,East,82,0.0,3.0,56,0.00,,,0.00,weatherlink.com 1.10,2013-04-10 00:50:00,
2013-04-09 21:05:00,72.4,56.0,30.11,East,98,0.0,2.0,57,0.00,,,0.00,weatherlink.com 1.10,2013-04-10 01:05:00,
2013-04-09 21:20:00,71.8,56.0,30.11,East,101,0.0,1.0,58,0.00,,,0.00,weatherlink.com 1.10,2013-04-10 01:20:00,
2013-04-09 21:35:00,71.2,56.0,30.11,East,101,0.0,0.0,59,0.00,,,0.00,weatherlink.com 1.10,2013-04-10 01:35:00,
2013-04-09 21:50:00,70.4,57.0,30.11,East,101,0.0,0.0,62,0.00,,,0.00,weatherlink.com 1.10,2013-04-10 01:50:00,
2013-04-09 22:05:00,69.7,56.0,30.11,East,101,0.0,0.0,63,0.00,,,0.00,weatherlink.com 1.10,2013-04-10 02:05:00,
2013-04-09 22:20:00,69.0,57.0,30.11,East,101,0.0,0.0,65,0.00,,,0.00,weatherlink.com 1.10,2013-04-10 02:20:00,
2013-04-09 22:35:00,68.4,57.0,30.10,East,101,0.0,0.0,66,0.00,,,0.00,weatherlink.com 1.10,2013-04-10 02:35:00,
2013-04-09 22:50:00,67.9,56.0,30.10,NE,48,0.0,1.0,67,0.00,,,0.00,weatherlink.com 1.10,2013-04-10 02:50:00,
2013-04-09 23:05:00,67.4,56.0,30.10,ESE,103,0.0,0.0,68,0.00,,,0.00,weatherlink.com 1.10,2013-04-10 03:05:00,
2013-04-09 23:20:00,66.8,57.0,30.10,ESE,103,0.0,0.0,70,0.00,,,0.00,weatherlink.com 1.10,2013-04-10 03:20:00,
2013-04-09 23:35:00,65.7,56.0,30.10,ESE,121,1.0,2.0,72,0.00,,,0.00,weatherlink.com 1.10,2013-04-10 03:35:00,
2013-04-09 23:50:00,65.2,57.0,30.10,East,94,1.0,2.0,74,0.00,,,0.00,weatherlink.com 1.10,2013-04-10 03:50:00,